METAR Data
IDs: Format: Raw Decoded Include TAF

Data at: 1342 UTC 14 Dec 2019

METAR for:KCIN (Carroll/Neu Arpt, IA, US)
Text:KCIN 141335Z AUTO 31015G20KT 10SM BKN016 OVC026 M08/M10 A2994 RMK AO2
Temperature: -8.0°C ( 18°F)
Dewpoint:-10.0°C ( 14°F) [RH = 85%]
Pressure (altimeter):29.94 inches Hg (1014.0 mb)
Winds:from the NW (310 degrees) at 17 MPH (15 knots; 7.7 m/s) gusting to 23 MPH (20 knots; 10.3 m/s)
Visibility:10 or more sm (16+ km)
Ceiling:1600 feet AGL
Clouds: broken clouds at 1600 feet AGL, overcast cloud deck at 2600 feet AGL
QC Flag:automated observation with no human augmentation